Aviation Digital Data Service (ADDS)

Output produced by TAFs form (0207 UTC 19 July 2018)
found at http://www.aviationweather.gov/adds/tafs/
 
METAR text: RJOT 190200Z VRB04KT 9999 FEW030 32/26 Q1011
Conditions at: RJOT (TAKAMATSU AIRPOR, JP) observed 0200 UTC 19 July 2018
Temperature: 32.0°C (90°F)
Dewpoint: 26.0°C (79°F) [RH = 71%]
Pressure (altimeter): 29.85 inches Hg (1011.0 mb)
Winds: variable direction winds at 5 MPH (4 knots; 2.1 m/s)
Visibility: 6 or more miles (10+ km)
Ceiling: at least 12,000 feet AGL
Clouds: few clouds at 3000 feet AGL
Weather: no significant weather observed at this time

Forecast for: RJOT (TAKAMATSU AIRPOR, JP)
Text: TAF RJOT 182309Z 1900/2006 06007KT 9999 FEW030
Forecast period: 0000 UTC 19 July 2018 to 0600 UTC 20 July 2018
Forecast type: FROM: standard forecast or significant change
Winds: from the ENE (60 degrees) at 8 MPH (7 knots; 3.6 m/s)
Visibility: 6 or more miles (10+ km)
Clouds: few clouds at 3000 feet AGL
Weather: no significant weather forecast for this period